Terminal Aerodrome Forecast
Issued by NWS

Home | Current Version | Previous Version | Text Only | Print | Product List | Glossary On
Versions: 1 2 3 4 5 6 7 8 9 10 11 12 13 14 15 16 17 18 19 20 21 22 23 24
000
FTUS43 KLOT 221144 CCA
TAFDPA
TAF COR
KDPA 221144Z 2212/2312 12007KT 4SM -SHRA VCTS BKN004 OVC014CB
      TEMPO 2212/2214 1SM SHRA BR OVC004
     FM221500 15011G17KT P6SM BKN014 OVC020
     FM221800 18012G18KT P6SM BKN050 OVC100
     FM222200 19009KT P6SM VCSH OVC050
      TEMPO 2223/2302 3SM -SHRA
     FM230400 24006KT 5SM BR OVC025
     FM230800 28009KT 3SM BR VCSH OVC010 PROB30 2309/2312 1SM -SN
      OVC007=

USA.gov is the U.S. government's official web portal to all federal, state and local government web resources and services.